首页
METAR-TAF:

METAR-TAF

机场 :

Gallup, 新墨西哥州, 美国

纬度: 35-30-40N, 经度: 108-47-22W, 海拔: 1973米

当前天气观测

该预报发布于30分钟前的19:53 UTC
风速7节,风向西转西南
温度 10°C
湿度 46%
气压 1025 hPa
能見度: 16.1公里
天空无云

METAR: KGUP 071953Z AUTO 24007KT 10SM CLR 10/M01 A3026 RMK AO2 SLP234 T01001006

时间: 13:23 (20:23 UTC)

预报

该预报发布于3小时和2分钟前的17:21 UTC
预报有效从07日的 18点(UTC)到 08日的 18点(UTC)
风速节,风向
能見度: 10公里
散云层高于25000英尺
从 07日的 2000点(UTC)
风速10节,风向西转西南
能見度: 10公里
散云层高于6000英尺
多云层高于25000英尺
从 08日的 0100点(UTC)
风速6节,风向南转西南
能見度: 10公里
多云层高于6000英尺
从 08日的 1000点(UTC)
风速6节,风向南转西南
能見度: 3.2公里
阴天层高于900英尺
雨, 雪, 轻雾
短暂存在
从 08日的 11点(UTC)到 08日的 15点(UTC)
能見度: 0.8公里
阴天层高于200英尺

TAF: KGUP 071721Z 0718/0818 00000KT P6SM SCT250 FM072000 24010KT P6SM SCT060 BKN250 FM080100 21006KT P6SM BKN060 FM081000 21006KT 2SM RASN BR OVC009 TEMPO 0811/0815 1/2SM SN OVC002

超过4000个机场的气象观测和天气预报(METAR&TAF报告)。

可查询的气象台以黄色和红色小点在地图上表示。

将鼠标移到小点上方,可查看气象台名称。

然后点击查看天气观测和预报。

如需切换地图:点击带黑十字的绿色按钮放大地图;点击带横线的绿色按钮缩小地图;或者点击绿色箭头查看邻近地区的地图。


METAR-TAF: